sensor_id;sensor_type;location;lat;lon;timestamp;pressure;altitude;pressure_sealevel;temperature;humidity
50650;BME280;36621;60.058;30.346;2022-12-18T00:01:35;102324.97;;;-3.27;67.06
50650;BME280;36621;60.058;30.346;2022-12-18T00:09:10;102316.25;;;-3.29;66.63
50650;BME280;36621;60.058;30.346;2022-12-18T00:16:44;102311.63;;;-3.47;66.87
50650;BME280;36621;60.058;30.346;2022-12-18T00:24:17;102314.72;;;-3.42;66.63
50650;BME280;36621;60.058;30.346;2022-12-18T00:31:51;102281.28;;;-3.56;66.72
50650;BME280;36621;60.058;30.346;2022-12-18T00:39:23;102303.50;;;-3.55;66.95
50650;BME280;36621;60.058;30.346;2022-12-18T00:46:56;102270.19;;;-3.61;67.48
50650;BME280;36621;60.058;30.346;2022-12-18T00:54:28;102238.13;;;-3.90;67.91
50650;BME280;36621;60.058;30.346;2022-12-18T01:02:01;102250.94;;;-3.94;67.26
50650;BME280;36621;60.058;30.346;2022-12-18T01:09:33;102278.59;;;-3.66;66.80
50650;BME280;36621;60.058;30.346;2022-12-18T01:17:07;102282.38;;;-3.58;67.84
50650;BME280;36621;60.058;30.346;2022-12-18T01:24:39;102268.63;;;-3.63;67.69
50650;BME280;36621;60.058;30.346;2022-12-18T01:32:12;102259.94;;;-3.75;67.89
50650;BME280;36621;60.058;30.346;2022-12-18T01:39:44;102273.13;;;-3.64;67.73
50650;BME280;36621;60.058;30.346;2022-12-18T01:47:21;102227.63;;;-3.72;67.66
50650;BME280;36621;60.058;30.346;2022-12-18T01:54:54;102265.53;;;-3.69;67.25
50650;BME280;36621;60.058;30.346;2022-12-18T02:02:28;102217.34;;;-3.96;68.33
50650;BME280;36621;60.058;30.346;2022-12-18T02:10:05;102263.28;;;-3.63;68.37
50650;BME280;36621;60.058;30.346;2022-12-18T02:17:43;102262.56;;;-3.66;69.25
50650;BME280;36621;60.058;30.346;2022-12-18T02:25:28;102216.25;;;-3.94;69.26
50650;BME280;36621;60.058;30.346;2022-12-18T02:33:05;102254.31;;;-3.62;68.15
50650;BME280;36621;60.058;30.346;2022-12-18T02:40:39;102250.50;;;-3.50;67.59
50650;BME280;36621;60.058;30.346;2022-12-18T02:48:14;102237.13;;;-3.50;67.10
50650;BME280;36621;60.058;30.346;2022-12-18T02:55:56;102209.31;;;-3.67;68.00
50650;BME280;36621;60.058;30.346;2022-12-18T03:03:35;102251.75;;;-3.35;68.00
50650;BME280;36621;60.058;30.346;2022-12-18T03:11:13;102225.34;;;-3.57;66.63
50650;BME280;36621;60.058;30.346;2022-12-18T03:18:50;102261.84;;;-3.38;67.29
50650;BME280;36621;60.058;30.346;2022-12-18T03:26:26;102234.84;;;-3.35;66.87
50650;BME280;36621;60.058;30.346;2022-12-18T03:34:05;102265.38;;;-2.90;70.36
50650;BME280;36621;60.058;30.346;2022-12-18T03:41:52;102258.03;;;-3.16;68.59
50650;BME280;36621;60.058;30.346;2022-12-18T03:49:38;102266.47;;;-3.21;68.48
50650;BME280;36621;60.058;30.346;2022-12-18T03:57:20;102216.59;;;-3.50;68.40
50650;BME280;36621;60.058;30.346;2022-12-18T04:04:59;102240.75;;;-3.32;67.83
50650;BME280;36621;60.058;30.346;2022-12-18T04:12:37;102210.72;;;-3.53;67.58
50650;BME280;36621;60.058;30.346;2022-12-18T04:20:16;102233.44;;;-3.29;66.81
50650;BME280;36621;60.058;30.346;2022-12-18T04:27:51;102195.44;;;-3.61;67.87
50650;BME280;36621;60.058;30.346;2022-12-18T04:35:23;102253.00;;;-3.29;67.01
50650;BME280;36621;60.058;30.346;2022-12-18T04:42:56;102239.38;;;-3.36;67.22
50650;BME280;36621;60.058;30.346;2022-12-18T04:50:30;102216.06;;;-3.53;67.23
50650;BME280;36621;60.058;30.346;2022-12-18T04:58:02;102254.09;;;-3.22;67.43
50650;BME280;36621;60.058;30.346;2022-12-18T05:05:35;102248.91;;;-3.23;67.80
50650;BME280;36621;60.058;30.346;2022-12-18T05:13:07;102237.13;;;-3.50;66.57
50650;BME280;36621;60.058;30.346;2022-12-18T05:20:41;102245.72;;;-3.56;67.23
50650;BME280;36621;60.058;30.346;2022-12-18T05:28:13;102233.78;;;-3.72;67.52
50650;BME280;36621;60.058;30.346;2022-12-18T05:35:51;102237.88;;;-3.68;67.81
50650;BME280;36621;60.058;30.346;2022-12-18T05:43:24;102235.47;;;-3.71;66.70
50650;BME280;36621;60.058;30.346;2022-12-18T05:51:04;102254.03;;;-3.59;67.75
50650;BME280;36621;60.058;30.346;2022-12-18T05:58:38;102247.56;;;-3.76;66.46
50650;BME280;36621;60.058;30.346;2022-12-18T06:06:25;102179.44;;;-4.10;66.85
50650;BME280;36621;60.058;30.346;2022-12-18T06:14:03;102218.06;;;-3.85;67.03
50650;BME280;36621;60.058;30.346;2022-12-18T06:21:36;102171.59;;;-4.21;67.08
50650;BME280;36621;60.058;30.346;2022-12-18T06:29:09;102234.06;;;-3.75;67.50
50650;BME280;36621;60.058;30.346;2022-12-18T06:36:48;102257.66;;;-3.60;67.93
50650;BME280;36621;60.058;30.346;2022-12-18T06:44:24;102222.84;;;-3.78;67.71
50650;BME280;36621;60.058;30.346;2022-12-18T06:52:14;102221.97;;;-3.89;69.02
50650;BME280;36621;60.058;30.346;2022-12-18T06:59:55;102216.22;;;-4.04;67.04
50650;BME280;36621;60.058;30.346;2022-12-18T07:07:28;102214.00;;;-4.08;67.77
50650;BME280;36621;60.058;30.346;2022-12-18T07:15:03;102229.72;;;-4.05;68.14
50650;BME280;36621;60.058;30.346;2022-12-18T07:22:38;102163.81;;;-4.63;67.39
50650;BME280;36621;60.058;30.346;2022-12-18T07:30:11;102214.88;;;-4.58;66.75
50650;BME280;36621;60.058;30.346;2022-12-18T07:37:44;102238.06;;;-4.49;66.69
50650;BME280;36621;60.058;30.346;2022-12-18T07:45:17;102232.91;;;-4.31;67.46
50650;BME280;36621;60.058;30.346;2022-12-18T07:52:50;102228.00;;;-4.16;67.73
50650;BME280;36621;60.058;30.346;2022-12-18T08:00:29;102134.91;;;-4.58;67.74
50650;BME280;36621;60.058;30.346;2022-12-18T08:08:03;102191.66;;;-4.17;67.78
50650;BME280;36621;60.058;30.346;2022-12-18T08:15:36;102196.16;;;-4.08;68.15
50650;BME280;36621;60.058;30.346;2022-12-18T08:23:12;102180.41;;;-4.21;68.12
50650;BME280;36621;60.058;30.346;2022-12-18T08:30:57;102214.41;;;-3.93;67.43
50650;BME280;36621;60.058;30.346;2022-12-18T08:38:33;102209.91;;;-3.83;67.51
50650;BME280;36621;60.058;30.346;2022-12-18T08:46:15;102212.56;;;-3.73;68.08
50650;BME280;36621;60.058;30.346;2022-12-18T09:13:18;102083.69;;;-4.13;69.40
50650;BME280;36621;60.058;30.346;2022-12-18T09:20:57;102163.66;;;-3.64;68.35
50650;BME280;36621;60.058;30.346;2022-12-18T09:28:33;102185.72;;;-3.52;67.68
50650;BME280;36621;60.058;30.346;2022-12-18T09:36:10;102176.84;;;-3.53;68.49
50650;BME280;36621;60.058;30.346;2022-12-18T09:43:53;102117.94;;;-3.98;69.58
50650;BME280;36621;60.058;30.346;2022-12-18T09:51:43;102132.78;;;-3.86;69.03
50650;BME280;36621;60.058;30.346;2022-12-18T09:59:32;102155.16;;;-3.40;69.73
50650;BME280;36621;60.058;30.346;2022-12-18T10:07:21;102038.34;;;-4.13;69.58
50650;BME280;36621;60.058;30.346;2022-12-18T12:17:50;102038.66;;;-3.41;68.78
50650;BME280;36621;60.058;30.346;2022-12-18T12:25:37;102064.88;;;-3.26;68.96
50650;BME280;36621;60.058;30.346;2022-12-18T12:33:25;102068.09;;;-3.23;70.03
50650;BME280;36621;60.058;30.346;2022-12-18T12:41:05;102057.06;;;-3.38;68.52
50650;BME280;36621;60.058;30.346;2022-12-18T12:49:09;102026.91;;;-3.48;69.81
50650;BME280;36621;60.058;30.346;2022-12-18T12:56:48;102060.75;;;-3.21;69.88
50650;BME280;36621;60.058;30.346;2022-12-18T13:04:27;102065.44;;;-3.33;69.24
50650;BME280;36621;60.058;30.346;2022-12-18T13:12:10;102070.00;;;-3.43;70.10
50650;BME280;36621;60.058;30.346;2022-12-18T13:20:10;102041.38;;;-3.51;69.37
50650;BME280;36621;60.058;30.346;2022-12-18T13:29:39;101952.94;;;-4.03;70.30
50650;BME280;36621;60.058;30.346;2022-12-18T13:36:31;102047.72;;;-3.61;69.08
50650;BME280;36621;60.058;30.346;2022-12-18T13:44:11;102039.91;;;-3.73;69.43
50650;BME280;36621;60.058;30.346;2022-12-18T13:51:49;101965.41;;;-4.31;69.02
50650;BME280;36621;60.058;30.346;2022-12-18T13:59:23;102017.69;;;-3.63;70.32
50650;BME280;36621;60.058;30.346;2022-12-18T14:07:03;101968.88;;;-3.56;70.19
50650;BME280;36621;60.058;30.346;2022-12-18T14:14:37;102008.41;;;-3.14;69.08
50650;BME280;36621;60.058;30.346;2022-12-18T14:22:15;101978.09;;;-3.22;69.84
50650;BME280;36621;60.058;30.346;2022-12-18T14:29:49;101964.50;;;-3.29;69.26
50650;BME280;36621;60.058;30.346;2022-12-18T14:37:23;101935.97;;;-3.28;69.90
50650;BME280;36621;60.058;30.346;2022-12-18T14:45:34;101984.47;;;-2.87;69.85
50650;BME280;36621;60.058;30.346;2022-12-18T14:53:20;101971.25;;;-2.89;70.84
50650;BME280;36621;60.058;30.346;2022-12-18T15:00:54;101982.53;;;-2.77;69.68
50650;BME280;36621;60.058;30.346;2022-12-18T15:08:35;101964.94;;;-2.62;70.70
50650;BME280;36621;60.058;30.346;2022-12-18T15:16:19;101923.72;;;-2.77;70.93
50650;BME280;36621;60.058;30.346;2022-12-18T15:24:53;101949.78;;;-2.53;70.78
50650;BME280;36621;60.058;30.346;2022-12-18T15:32:29;101939.88;;;-2.34;71.58
50650;BME280;36621;60.058;30.346;2022-12-18T15:40:02;101934.22;;;-2.31;70.28
50650;BME280;36621;60.058;30.346;2022-12-18T15:47:36;101915.19;;;-2.28;70.68
50650;BME280;36621;60.058;30.346;2022-12-18T15:55:12;101890.09;;;-2.27;71.45
50650;BME280;36621;60.058;30.346;2022-12-18T16:03:04;101922.16;;;-2.01;71.08
50650;BME280;36621;60.058;30.346;2022-12-18T16:10:51;101908.50;;;-1.89;71.11
50650;BME280;36621;60.058;30.346;2022-12-18T16:18:26;101902.16;;;-1.88;71.53
50650;BME280;36621;60.058;30.346;2022-12-18T16:25:59;101891.13;;;-1.85;71.41
50650;BME280;36621;60.058;30.346;2022-12-18T16:33:31;101914.97;;;-1.66;72.29
50650;BME280;36621;60.058;30.346;2022-12-18T16:41:17;101898.06;;;-1.58;72.31
50650;BME280;36621;60.058;30.346;2022-12-18T16:49:08;101889.53;;;-1.62;71.77
50650;BME280;36621;60.058;30.346;2022-12-18T16:56:45;101882.00;;;-1.58;71.19
50650;BME280;36621;60.058;30.346;2022-12-18T17:04:22;101812.34;;;-1.75;72.47
50650;BME280;36621;60.058;30.346;2022-12-18T17:21:41;101823.41;;;-1.45;72.43
50650;BME280;36621;60.058;30.346;2022-12-18T17:29:14;101809.84;;;-1.43;72.06
50650;BME280;36621;60.058;30.346;2022-12-18T17:36:48;101824.63;;;-1.23;72.63
50650;BME280;36621;60.058;30.346;2022-12-18T17:44:20;101776.72;;;-1.42;71.50
50650;BME280;36621;60.058;30.346;2022-12-18T17:51:54;101802.81;;;-1.03;71.83
50650;BME280;36621;60.058;30.346;2022-12-18T17:59:29;101758.44;;;-1.22;71.82
50650;BME280;36621;60.058;30.346;2022-12-18T18:07:03;101787.72;;;-0.88;72.21
50650;BME280;36621;60.058;30.346;2022-12-18T18:14:36;101778.69;;;-0.95;72.84
50650;BME280;36621;60.058;30.346;2022-12-18T18:22:09;101759.91;;;-0.95;72.65
50650;BME280;36621;60.058;30.346;2022-12-18T18:29:41;101754.53;;;-0.95;72.66
50650;BME280;36621;60.058;30.346;2022-12-18T18:37:15;101760.22;;;-0.90;72.62
50650;BME280;36621;60.058;30.346;2022-12-18T18:44:47;101760.38;;;-0.91;72.40
50650;BME280;36621;60.058;30.346;2022-12-18T18:52:20;101747.97;;;-0.84;72.21
50650;BME280;36621;60.058;30.346;2022-12-18T18:59:55;101724.22;;;-0.95;71.91
50650;BME280;36621;60.058;30.346;2022-12-18T19:07:28;101725.50;;;-0.83;72.64
50650;BME280;36621;60.058;30.346;2022-12-18T19:15:06;101651.06;;;-1.20;71.89
50650;BME280;36621;60.058;30.346;2022-12-18T19:22:55;101691.84;;;-0.85;72.63
50650;BME280;36621;60.058;30.346;2022-12-18T19:30:28;101677.59;;;-0.86;72.35
50650;BME280;36621;60.058;30.346;2022-12-18T19:38:01;101651.00;;;-1.04;72.49
50650;BME280;36621;60.058;30.346;2022-12-18T19:45:33;101690.25;;;-0.63;73.07
50650;BME280;36621;60.058;30.346;2022-12-18T19:53:06;101663.28;;;-0.70;72.16
50650;BME280;36621;60.058;30.346;2022-12-18T20:00:39;101643.19;;;-0.74;73.02
50650;BME280;36621;60.058;30.346;2022-12-18T20:08:12;101645.16;;;-0.68;72.84
50650;BME280;36621;60.058;30.346;2022-12-18T20:15:44;101642.63;;;-0.61;73.44
50650;BME280;36621;60.058;30.346;2022-12-18T20:23:17;101609.31;;;-0.75;73.25
50650;BME280;36621;60.058;30.346;2022-12-18T20:30:50;101623.31;;;-0.57;73.12
50650;BME280;36621;60.058;30.346;2022-12-18T20:38:23;101597.44;;;-0.49;73.56
50650;BME280;36621;60.058;30.346;2022-12-18T20:46:00;101540.69;;;-0.84;72.86
50650;BME280;36621;60.058;30.346;2022-12-18T20:53:34;101590.34;;;-0.42;72.89
50650;BME280;36621;60.058;30.346;2022-12-18T21:01:09;101572.59;;;-0.43;73.28
50650;BME280;36621;60.058;30.346;2022-12-18T21:08:43;101567.22;;;-0.43;73.38
50650;BME280;36621;60.058;30.346;2022-12-18T21:16:15;101524.41;;;-0.60;73.53
50650;BME280;36621;60.058;30.346;2022-12-18T21:23:48;101558.03;;;-0.26;74.00
50650;BME280;36621;60.058;30.346;2022-12-18T21:31:22;101521.06;;;-0.39;73.76
50650;BME280;36621;60.058;30.346;2022-12-18T21:38:55;101495.44;;;-0.41;73.71
50650;BME280;36621;60.058;30.346;2022-12-18T21:46:29;101516.41;;;-0.22;73.78
50650;BME280;36621;60.058;30.346;2022-12-18T21:54:02;101494.47;;;-0.10;74.33
50650;BME280;36621;60.058;30.346;2022-12-18T22:01:35;101500.88;;;-0.11;74.08
50650;BME280;36621;60.058;30.346;2022-12-18T22:09:09;101489.94;;;-0.10;74.08
50650;BME280;36621;60.058;30.346;2022-12-18T22:16:42;101496.31;;;0.04;73.64
50650;BME280;36621;60.058;30.346;2022-12-18T22:24:16;101488.75;;;0.08;74.10
50650;BME280;36621;60.058;30.346;2022-12-18T22:31:50;101409.50;;;-0.33;73.78
50650;BME280;36621;60.058;30.346;2022-12-18T22:39:24;101455.97;;;0.12;74.13
50650;BME280;36621;60.058;30.346;2022-12-18T22:46:57;101457.38;;;0.23;74.42
50650;BME280;36621;60.058;30.346;2022-12-18T22:54:31;101451.44;;;0.28;74.01
50650;BME280;36621;60.058;30.346;2022-12-18T23:02:03;101428.75;;;0.30;73.93
50650;BME280;36621;60.058;30.346;2022-12-18T23:09:36;101394.09;;;0.21;74.48
50650;BME280;36621;60.058;30.346;2022-12-18T23:17:08;101378.47;;;0.09;73.74
50650;BME280;36621;60.058;30.346;2022-12-18T23:24:42;101341.50;;;0.11;74.17
50650;BME280;36621;60.058;30.346;2022-12-18T23:32:14;101395.13;;;0.56;74.80
50650;BME280;36621;60.058;30.346;2022-12-18T23:39:47;101391.13;;;0.67;74.55
50650;BME280;36621;60.058;30.346;2022-12-18T23:47:19;101338.13;;;0.39;74.33
50650;BME280;36621;60.058;30.346;2022-12-18T23:54:52;101315.09;;;0.51;74.84
